Time;durP1;ratioP1;P1;durP2;ratioP2;P2;SDS_P1;SDS_P2;PMS_P1;PMS_P2;Temp;Humidity;BMP_temperature;BMP_pressure;BME280_temperature;BME280_humidity;BME280_pressure;Samples;Min_cycle;Max_cycle;Signal;HPM_P1;HPM_P2
2021/04/10 00:00:00;;;;;;;0.60;0.60;;;;;;;9.95;44.07;96509.03;29991;251;6000;-54
2021/04/10 00:00:30;;;;;;;0.60;0.60;;;;;;;9.92;43.86;96509.63;29991;268;6005;-55
2021/04/10 00:01:05;;;;;;;0.60;0.60;;;;;;;9.89;43.77;96498.59;29991;266;6000;-54
2021/04/10 00:01:38;;;;;;;0.60;0.60;;;;;;;9.93;43.69;96508.53;29991;202;6004;-54
2021/04/10 00:02:15;;;;;;;0.60;0.60;;;;;;;9.91;43.64;96504.50;29989;229;7000;-53
2021/04/10 00:02:50;;;;;;;0.50;0.50;;;;;;;9.91;43.95;96504.50;29991;228;6004;-54
2021/04/10 00:03:24;;;;;;;0.60;0.60;;;;;;;9.94;43.59;96501.22;29991;206;6000;-55
2021/04/10 00:03:54;;;;;;;0.60;0.60;;;;;;;9.93;43.83;96499.59;29991;226;6004;-53
2021/04/10 00:04:25;;;;;;;0.60;0.60;;;;;;;9.94;43.60;96498.50;29991;233;6000;-54
2021/04/10 00:04:58;;;;;;;0.60;0.60;;;;;;;9.91;44.22;96505.31;29991;292;6004;-54
2021/04/10 00:05:29;;;;;;;0.60;0.60;;;;;;;9.92;44.29;96501.50;29990;203;6992;-53
2021/04/10 00:06:03;;;;;;;0.60;0.60;;;;;;;9.92;44.02;96493.38;29991;210;6004;-56
2021/04/10 00:06:33;;;;;;;0.60;0.60;;;;;;;9.92;44.01;96501.50;29991;260;6000;-54
2021/04/10 00:07:05;;;;;;;0.60;0.60;;;;;;;9.94;43.67;96493.09;29991;217;6005;-55
2021/04/10 00:07:35;;;;;;;0.60;0.60;;;;;;;9.93;43.82;96497.69;29989;251;7000;-54
2021/04/10 00:08:07;;;;;;;0.60;0.60;;;;;;;9.90;44.29;96502.91;29991;204;6005;-54
2021/04/10 00:08:38;;;;;;;0.60;0.60;;;;;;;9.90;44.05;96502.91;29991;208;6000;-55
2021/04/10 00:09:09;;;;;;;0.60;0.60;;;;;;;9.89;44.05;96502.09;29991;250;6004;-54
2021/04/10 00:09:40;;;;;;;0.60;0.60;;;;;;;9.88;44.52;96515.94;29990;203;6000;-55
2021/04/10 00:10:12;;;;;;;0.60;0.60;;;;;;;9.85;44.25;96503.78;29991;197;6004;-56
2021/04/10 00:10:43;;;;;;;0.60;0.60;;;;;;;9.85;44.22;96503.78;29991;244;6000;-55
2021/04/10 00:11:16;;;;;;;0.60;0.60;;;;;;;9.84;44.12;96499.47;29989;206;7004;-54
2021/04/10 00:11:49;;;;;;;0.60;0.60;;;;;;;9.83;44.22;96497.88;29991;217;6000;-55
2021/04/10 00:12:20;;;;;;;0.60;0.60;;;;;;;9.82;44.19;96501.66;29991;284;6004;-55
2021/04/10 00:12:51;;;;;;;0.60;0.60;;;;;;;9.81;44.19;96500.06;29991;257;6000;-54
2021/04/10 00:13:22;;;;;;;0.60;0.60;;;;;;;9.81;44.21;96500.06;29991;226;6004;-55
2021/04/10 00:13:53;;;;;;;0.60;0.60;;;;;;;9.82;44.25;96501.66;29991;267;6000;-54
2021/04/10 00:14:25;;;;;;;0.60;0.60;;;;;;;9.83;44.11;96500.56;29991;239;6005;-55
2021/04/10 00:14:56;;;;;;;0.50;0.50;;;;;;;9.83;44.88;96497.06;29991;247;6000;-55
2021/04/10 00:15:29;;;;;;;0.50;0.50;;;;;;;9.79;44.45;96498.75;29989;307;7005;-55
2021/04/10 00:15:59;;;;;;;0.50;0.50;;;;;;;9.81;44.32;96494.66;29991;227;6000;-55
2021/04/10 00:16:30;;;;;;;0.60;0.60;;;;;;;9.84;43.98;96491.34;29991;202;6004;-55
2021/04/10 00:17:01;;;;;;;0.60;0.60;;;;;;;9.90;44.33;96498.28;29991;215;6000;-55
2021/04/10 00:17:31;;;;;;;0.60;0.60;;;;;;;9.89;44.18;96496.69;29990;279;6004;-55
2021/04/10 00:18:03;;;;;;;0.60;0.60;;;;;;;9.88;44.14;96503.19;29991;196;6000;-54
2021/04/10 00:18:34;;;;;;;0.57;0.57;;;;;;;9.88;44.55;96503.19;29989;275;7004;-54
2021/04/10 00:19:05;;;;;;;0.60;0.60;;;;;;;9.90;44.55;96506.41;29991;288;6000;-55
2021/04/10 00:19:35;;;;;;;0.60;0.60;;;;;;;9.91;44.18;96497.19;29990;311;6997;-54
2021/04/10 00:20:09;;;;;;;0.60;0.60;;;;;;;9.90;44.06;96492.88;29991;212;6000;-55
2021/04/10 00:20:40;;;;;;;0.50;0.50;;;;;;;9.87;44.14;96493.47;29989;204;7004;-55
2021/04/10 00:21:11;;;;;;;0.60;0.60;;;;;;;9.85;44.26;96495.66;29991;212;6000;-55
2021/04/10 00:21:41;;;;;;;0.60;0.60;;;;;;;9.84;43.97;96499.47;29990;203;6005;-55
2021/04/10 00:22:12;;;;;;;0.60;0.60;;;;;;;9.88;44.56;96500.50;29991;216;6000;-54
2021/04/10 00:22:43;;;;;;;0.60;0.60;;;;;;;9.88;44.22;96495.06;29991;243;6005;-55
2021/04/10 00:23:13;;;;;;;0.60;0.60;;;;;;;9.87;44.20;96503.50;29991;248;6000;-55
2021/04/10 00:23:47;;;;;;;0.60;0.60;;;;;;;9.85;44.12;96501.09;29990;208;6005;-54
2021/04/10 00:24:19;;;;;;;0.60;0.60;;;;;;;9.91;44.15;96496.38;29991;236;6000;-54
2021/04/10 00:24:49;;;;;;;0.60;0.60;;;;;;;9.91;43.97;96494.47;29991;248;6004;-55
2021/04/10 00:25:20;;;;;;;0.60;0.60;;;;;;;9.90;43.91;96492.88;29989;216;7000;-54
2021/04/10 00:25:51;;;;;;;0.60;0.60;;;;;;;9.88;44.03;96495.06;29991;217;6004;-54
2021/04/10 00:26:22;;;;;;;0.60;0.60;;;;;;;9.88;43.97;96500.50;29991;234;6000;-55
2021/04/10 00:26:53;;;;;;;0.60;0.60;;;;;;;9.88;44.12;96500.50;29991;245;6004;-55
2021/04/10 00:27:23;;;;;;;0.60;0.60;;;;;;;9.88;44.40;96500.50;29990;237;6000;-55
2021/04/10 00:27:54;;;;;;;0.60;0.60;;;;;;;9.86;44.29;96502.69;29991;202;6004;-54
2021/04/10 00:28:24;;;;;;;0.60;0.60;;;;;;;9.84;44.37;96507.59;29991;245;6000;-55
2021/04/10 00:28:55;;;;;;;0.60;0.60;;;;;;;9.84;44.22;96499.47;29991;219;6005;-55
2021/04/10 00:29:26;;;;;;;0.60;0.60;;;;;;;9.79;44.18;96499.56;29991;203;6000;-54
2021/04/10 00:29:56;;;;;;;0.60;0.60;;;;;;;9.81;44.20;96505.47;29991;199;6014;-55
2021/04/10 00:30:27;;;;;;;0.60;0.60;;;;;;;9.81;44.43;96502.78;29989;225;7000;-55
2021/04/10 00:31:06;;;;;;;0.60;0.60;;;;;;;9.82;44.26;96507.09;29991;276;6005;-55
2021/04/10 00:31:37;;;;;;;0.60;0.60;;;;;;;9.80;44.44;96503.88;29991;275;6000;-54
2021/04/10 00:32:07;;;;;;;0.90;0.90;;;;;;;9.84;44.47;96494.06;29991;247;6004;-54
2021/04/10 00:32:38;;;;;;;0.60;0.60;;;;;;;9.86;44.65;96513.53;29991;221;6000;-55
2021/04/10 00:33:08;;;;;;;0.60;0.60;;;;;;;9.84;44.31;96510.31;29991;195;6011;-54
2021/04/10 00:33:41;;;;;;;0.50;0.50;;;;;;;9.90;44.05;96503.72;29991;228;6000;-55
2021/04/10 00:34:11;;;;;;;0.60;0.60;;;;;;;10.01;43.55;96504.34;29991;293;6004;-55
2021/04/10 00:34:42;;;;;;;0.60;0.60;;;;;;;10.00;43.53;96498.12;29989;254;7000;-54
2021/04/10 00:35:12;;;;;;;0.60;0.60;;;;;;;9.97;44.22;96504.13;29991;223;6004;-54
2021/04/10 00:35:43;;;;;;;0.60;0.60;;;;;;;9.94;44.02;96510.16;29991;242;6000;-56
2021/04/10 00:36:15;;;;;;;0.60;0.60;;;;;;;9.96;43.83;96502.53;29990;261;6004;-54
2021/04/10 00:36:48;;;;;;;0.60;0.60;;;;;;;9.97;43.83;96501.41;29991;247;6000;-55
2021/04/10 00:37:19;;;;;;;0.60;0.60;;;;;;;9.95;43.93;96506.34;29990;227;6005;-55
2021/04/10 00:37:50;;;;;;;0.50;0.50;;;;;;;9.92;43.79;96501.50;29991;198;6000;-54
2021/04/10 00:38:21;;;;;;;0.60;0.60;;;;;;;9.90;43.64;96503.72;29989;214;6005;-56
2021/04/10 00:38:51;;;;;;;0.60;0.60;;;;;;;9.90;43.99;96509.13;29991;241;6000;-54
2021/04/10 00:39:22;;;;;;;0.60;0.60;;;;;;;9.86;44.19;96502.69;29991;220;6004;-55
2021/04/10 00:39:52;;;;;;;0.60;0.60;;;;;;;9.89;44.27;96502.09;29990;209;6000;-55
2021/04/10 00:40:23;;;;;;;0.60;0.60;;;;;;;9.89;43.96;96507.53;29991;245;6004;-55
2021/04/10 00:40:54;;;;;;;0.60;0.60;;;;;;;9.92;43.85;96501.50;29991;257;6000;-57
2021/04/10 00:41:24;;;;;;;0.55;0.55;;;;;;;10.03;43.50;96502.13;29991;202;6004;-54
2021/04/10 00:41:55;;;;;;;0.60;0.60;;;;;;;10.04;43.48;96499.12;29990;218;6000;-55
2021/04/10 00:42:26;;;;;;;0.60;0.60;;;;;;;10.05;43.56;96499.91;29991;202;6004;-55
2021/04/10 00:42:59;;;;;;;0.60;0.60;;;;;;;10.04;43.50;96504.56;29990;198;6000;-55
2021/04/10 00:43:30;;;;;;;0.60;0.60;;;;;;;10.03;43.57;96497.53;29990;234;6004;-55
2021/04/10 00:44:01;;;;;;;0.60;0.60;;;;;;;10.02;43.62;96498.62;29991;210;6000;-55
2021/04/10 00:44:32;;;;;;;0.60;0.60;;;;;;;9.99;43.52;96501.94;29991;214;6005;-54
2021/04/10 00:45:04;;;;;;;0.60;0.60;;;;;;;9.98;43.71;96500.31;29991;218;6000;-54
2021/04/10 00:45:35;;;;;;;0.60;0.60;;;;;;;10.00;43.86;96492.69;29991;241;6005;-54
2021/04/10 00:46:06;;;;;;;0.50;0.50;;;;;;;10.03;43.79;96499.44;29991;203;6000;-55
2021/04/10 00:46:37;;;;;;;0.60;0.60;;;;;;;10.04;43.81;96499.12;29991;196;6004;-55
2021/04/10 00:47:08;;;;;;;0.60;0.60;;;;;;;10.03;43.76;96497.53;29990;217;6000;-54
2021/04/10 00:47:39;;;;;;;0.52;0.52;;;;;;;10.03;43.84;96494.81;29991;252;6004;-54
2021/04/10 00:48:09;;;;;;;0.62;0.62;;;;;;;10.05;43.40;96491.78;29990;222;6000;-55
2021/04/10 00:48:40;;;;;;;0.60;0.60;;;;;;;10.05;43.45;96494.47;29990;202;6004;-54
2021/04/10 00:49:11;;;;;;;0.60;0.60;;;;;;;10.05;43.40;96495.28;29990;223;6000;-54
2021/04/10 00:49:41;;;;;;;0.50;0.50;;;;;;;10.05;43.60;96494.47;29990;253;6004;-56
2021/04/10 00:50:12;;;;;;;0.60;0.60;;;;;;;10.00;43.30;96492.69;29991;219;6000;-55
2021/04/10 00:50:44;;;;;;;0.60;0.60;;;;;;;10.04;43.57;96487.47;29991;202;6005;-55
2021/04/10 00:51:15;;;;;;;0.60;0.60;;;;;;;10.07;43.52;96497.69;29991;211;6000;-55
2021/04/10 00:51:48;;;;;;;0.60;0.60;;;;;;;10.07;43.47;96487.66;29991;233;6005;-54
2021/04/10 00:52:19;;;;;;;0.60;0.60;;;;;;;10.09;43.55;96485.47;29991;262;6000;-56
2021/04/10 00:52:49;;;;;;;0.60;0.60;;;;;;;10.11;43.27;96487.06;29991;242;6005;-55
2021/04/10 00:53:24;;;;;;;0.60;0.60;;;;;;;10.15;43.26;96488.88;29991;227;6000;-55
2021/04/10 00:53:54;;;;;;;0.60;0.60;;;;;;;10.18;42.81;96482.06;29990;205;6004;-54
2021/04/10 00:54:25;;;;;;;0.50;0.50;;;;;;;10.21;42.87;96481.50;29990;264;6000;-54
2021/04/10 00:54:56;;;;;;;0.60;0.60;;;;;;;10.14;42.89;96481.06;29989;284;6004;-55
2021/04/10 00:55:28;;;;;;;0.60;0.60;;;;;;;10.13;43.12;96484.88;29990;248;6000;-55
2021/04/10 00:56:05;;;;;;;0.60;0.60;;;;;;;10.14;43.09;96486.47;29991;230;6000;-54
2021/04/10 00:56:38;;;;;;;0.60;0.60;;;;;;;10.17;43.04;96483.97;29990;218;6000;-54
2021/04/10 00:57:08;;;;;;;0.60;0.60;;;;;;;10.18;43.08;96487.47;29990;216;6004;-55
2021/04/10 00:57:39;;;;;;;0.60;0.60;;;;;;;10.17;43.07;96483.16;29991;222;6000;-54
2021/04/10 00:58:10;;;;;;;0.60;0.60;;;;;;;10.15;43.13;96482.66;29991;267;6004;-54
2021/04/10 00:58:41;;;;;;;0.60;0.60;;;;;;;10.13;43.20;96484.88;29991;230;6000;-54
2021/04/10 00:59:12;;;;;;;0.60;0.60;;;;;;;10.17;43.55;96483.97;29991;305;6005;-54
2021/04/10 00:59:44;;;;;;;0.60;0.60;;;;;;;10.24;42.89;96478.19;29990;205;6000;-54
2021/04/10 01:00:16;;;;;;;0.60;0.60;;;;;;;10.26;42.78;96476.78;29989;258;6005;-54
2021/04/10 01:00:48;;;;;;;0.60;0.60;;;;;;;10.31;42.58;96484.03;29991;300;6000;-55
2021/04/10 01:01:19;;;;;;;0.60;0.60;;;;;;;10.28;42.95;96477.28;29991;262;6004;-54
2021/04/10 01:01:50;;;;;;;0.60;0.60;;;;;;;10.26;42.99;96479.50;29991;281;6000;-54
2021/04/10 01:02:22;;;;;;;0.60;0.60;;;;;;;10.24;42.79;96476.28;29990;238;6004;-55
2021/04/10 01:02:53;;;;;;;0.60;0.60;;;;;;;10.26;42.92;96474.06;29991;220;6000;-54
2021/04/10 01:03:29;;;;;;;2.28;0.90;;;;;;;10.32;42.87;96485.63;29990;252;6004;-56
2021/04/10 01:03:59;;;;;;;0.60;0.60;;;;;;;10.29;43.24;96473.47;29990;234;6000;-55
2021/04/10 01:04:30;;;;;;;0.55;0.55;;;;;;;10.28;43.06;96477.28;29991;206;6004;-55
2021/04/10 01:05:03;;;;;;;0.60;0.60;;;;;;;10.27;43.13;96480.31;29991;276;6000;-55
2021/04/10 01:05:34;;;;;;;0.50;0.50;;;;;;;10.25;43.27;96480.59;29991;246;6004;-54
2021/04/10 01:06:04;;;;;;;0.60;0.60;;;;;;;10.24;43.36;96475.47;29991;222;6000;-55
2021/04/10 01:06:35;;;;;;;0.60;0.60;;;;;;;10.23;43.17;96474.66;29990;203;6005;-55
2021/04/10 01:07:08;;;;;;;0.60;0.60;;;;;;;10.27;43.09;96475.69;29991;221;6000;-54
2021/04/10 01:07:39;;;;;;;0.60;0.60;;;;;;;10.29;43.24;96478.91;29991;210;6005;-55
2021/04/10 01:08:10;;;;;;;0.60;0.60;;;;;;;10.34;42.79;96469.88;29991;255;6000;-55
2021/04/10 01:08:40;;;;;;;0.60;0.60;;;;;;;10.31;42.83;96478.59;29990;237;6004;-55
2021/04/10 01:09:11;;;;;;;0.60;0.60;;;;;;;10.27;42.86;96475.69;29990;199;6000;-55
2021/04/10 01:09:47;;;;;;;0.60;0.60;;;;;;;10.29;42.92;96478.09;29990;273;6004;-56
2021/04/10 01:10:18;;;;;;;0.60;0.60;;;;;;;10.27;42.93;96472.16;29991;252;6000;-55
2021/04/10 01:10:49;;;;;;;0.60;0.60;;;;;;;10.26;42.97;96473.28;29990;206;6004;-55
2021/04/10 01:12:01;;;;;;;0.60;0.60;;;;;;;10.25;42.89;96477.09;29991;240;6000;-54
2021/04/10 01:12:58;;;;;;;0.60;0.60;;;;;;;10.39;42.58;96462.44;29991;220;6006;-54
2021/04/10 01:14:03;;;;;;;0.60;0.60;;;;;;;10.47;42.33;96457.37;29991;221;6000;-56
2021/04/10 01:14:59;;;;;;;0.70;0.70;;;;;;;10.46;42.66;96456.59;29989;348;6005;-55
2021/04/10 01:16:11;;;;;;;0.60;0.60;;;;;;;10.37;42.92;96458.41;29991;257;6000;-55
2021/04/10 01:17:03;;;;;;;0.60;0.60;;;;;;;10.40;42.99;96465.91;29990;290;6004;-54
2021/04/10 01:17:55;;;;;;;0.60;0.60;;;;;;;10.39;42.76;96461.62;29995;301;6000;-54
2021/04/10 01:18:51;;;;;;;0.60;0.60;;;;;;;10.33;43.04;96460.91;29990;221;6004;-55
2021/04/10 01:20:03;;;;;;;0.60;0.60;;;;;;;10.30;43.08;96474.28;29991;272;6000;-55
2021/04/10 01:21:05;;;;;;;0.60;0.60;;;;;;;10.26;43.42;96467.84;29990;257;6004;-55
2021/04/10 01:21:44;;;;;;;0.60;0.60;;;;;;;10.25;43.47;96472.47;29990;234;6000;-55
2021/04/10 01:22:56;;;;;;;0.60;0.60;;;;;;;10.22;43.56;96466.84;29990;344;6005;-54
2021/04/10 01:24:11;;;;;;;0.60;0.60;;;;;;;10.27;43.34;96470.25;29989;212;6004;-54
2021/04/10 01:25:04;;;;;;;0.60;0.60;;;;;;;10.25;43.51;96472.47;29990;198;6004;-55
2021/04/10 01:26:20;;;;;;;0.60;0.60;;;;;;;10.19;44.06;96472.81;29990;303;6000;-55
2021/04/10 01:27:22;;;;;;;0.60;0.60;;;;;;;10.14;43.79;96475.62;29990;240;6004;-54
2021/04/10 01:28:01;;;;;;;0.60;0.60;;;;;;;10.11;43.85;96468.09;29990;210;6000;-55
2021/04/10 01:29:05;;;;;;;0.60;0.60;;;;;;;10.12;44.52;96472.41;29990;215;6005;-57
2021/04/10 01:29:49;;;;;;;0.60;0.60;;;;;;;10.09;43.79;96469.19;29990;198;6000;-54
2021/04/10 01:30:21;;;;;;;0.60;0.60;;;;;;;10.16;43.77;96484.25;29991;203;6005;-54
2021/04/10 01:30:53;;;;;;;0.60;0.60;;;;;;;10.17;43.77;96481.25;29990;212;6000;-55
2021/04/10 01:31:32;;;;;;;0.60;0.60;;;;;;;10.19;43.91;96470.94;29991;265;6004;-54
2021/04/10 01:32:05;;;;;;;0.60;0.60;;;;;;;10.25;43.92;96471.66;29990;239;6000;-54
2021/04/10 01:32:42;;;;;;;0.60;0.60;;;;;;;10.21;43.60;96473.38;29990;202;6004;-54
2021/04/10 01:33:19;;;;;;;0.60;0.60;;;;;;;10.16;43.45;96476.12;29991;202;6000;-54
2021/04/10 01:33:59;;;;;;;0.60;0.60;;;;;;;10.20;43.50;96483.41;29990;206;6015;-55
2021/04/10 01:34:47;;;;;;;0.60;0.60;;;;;;;10.21;43.69;96476.06;29991;203;6000;-55
2021/04/10 01:35:21;;;;;;;0.60;0.60;;;;;;;10.18;43.89;96471.22;29990;207;6004;-56
2021/04/10 01:35:56;;;;;;;0.70;0.70;;;;;;;10.15;43.91;96477.22;29990;279;6000;-55
2021/04/10 01:36:31;;;;;;;0.60;0.60;;;;;;;10.12;43.94;96477.84;29990;224;6005;-54
2021/04/10 01:37:10;;;;;;;0.60;0.60;;;;;;;10.09;44.26;96480.03;29991;240;6000;-55
2021/04/10 01:37:51;;;;;;;0.70;0.70;;;;;;;10.07;44.33;96484.94;29991;206;6005;-55
2021/04/10 01:38:27;;;;;;;0.80;0.80;;;;;;;10.04;44.44;96479.34;29991;229;6000;-55
2021/04/10 01:39:01;;;;;;;0.60;0.60;;;;;;;10.02;44.30;96478.84;29989;196;6004;-55
2021/04/10 01:39:33;;;;;;;0.62;0.62;;;;;;;10.04;44.43;96482.06;29991;211;6000;-57
2021/04/10 01:40:09;;;;;;;0.60;0.60;;;;;;;10.13;44.07;96474.81;29990;208;6004;-55
2021/04/10 01:40:41;;;;;;;0.70;0.70;;;;;;;10.15;43.88;96477.22;29990;234;6000;-55
2021/04/10 01:41:15;;;;;;;25.73;23.87;;;;;;;10.15;44.11;96475.31;29990;240;6004;-56
2021/04/10 01:41:49;;;;;;;0.60;0.60;;;;;;;10.14;44.24;96475.62;29990;237;6000;-55
2021/04/10 01:42:26;;;;;;;0.70;0.70;;;;;;;10.17;43.64;96483.97;29991;211;6004;-55
2021/04/10 01:42:59;;;;;;;0.60;0.60;;;;;;;10.23;43.91;96473.88;29991;219;6000;-55
2021/04/10 01:43:33;;;;;;;0.60;0.60;;;;;;;10.22;43.72;96477.69;29990;257;6004;-55
2021/04/10 01:44:06;;;;;;;0.60;0.60;;;;;;;10.27;44.19;96474.88;29991;232;6000;-55
2021/04/10 01:44:39;;;;;;;0.60;0.60;;;;;;;10.25;43.87;96471.66;29990;273;6005;-55
2021/04/10 01:45:11;;;;;;;0.60;0.60;;;;;;;10.23;44.02;96465.72;29990;227;6000;-55
2021/04/10 01:45:43;;;;;;;0.50;0.50;;;;;;;10.22;44.04;96488.53;29990;236;6005;-59
2021/04/10 01:46:16;;;;;;;0.60;0.60;;;;;;;10.30;43.73;96479.69;29990;268;6000;-55
2021/04/10 01:46:48;;;;;;;0.60;0.60;;;;;;;10.28;43.56;96476.47;29990;197;6004;-55
2021/04/10 01:47:20;;;;;;;0.60;0.60;;;;;;;10.30;43.85;96482.41;29991;222;6000;-55
2021/04/10 01:47:54;;;;;;;0.60;0.60;;;;;;;10.34;43.39;96469.88;29990;227;6004;-56
2021/04/10 01:48:26;;;;;;;0.60;0.60;;;;;;;10.35;43.50;96471.47;29990;268;6000;-55
2021/04/10 01:48:59;;;;;;;0.60;0.60;;;;;;;10.32;43.61;96474.78;29990;293;6004;-55
2021/04/10 01:49:31;;;;;;;0.60;0.60;;;;;;;10.39;43.52;96467.06;29990;202;6000;-55
2021/04/10 01:50:04;;;;;;;0.60;0.60;;;;;;;10.40;43.31;96476.78;29991;202;6004;-55
2021/04/10 01:50:40;;;;;;;0.60;0.60;;;;;;;10.34;44.10;96469.88;29991;236;6000;-55
2021/04/10 01:51:13;;;;;;;0.62;0.62;;;;;;;10.33;43.62;96468.25;29991;223;6005;-54
2021/04/10 01:51:46;;;;;;;0.60;0.60;;;;;;;10.34;43.55;96478.00;29991;212;6011;-55
2021/04/10 01:52:19;;;;;;;0.60;0.60;;;;;;;10.30;43.64;96477.00;29990;242;6005;-54
2021/04/10 01:52:52;;;;;;;0.60;0.60;;;;;;;10.32;44.02;96480.22;29991;222;6000;-55
2021/04/10 01:53:23;;;;;;;0.60;0.60;;;;;;;10.37;43.46;96480.91;29991;209;6005;-56
2021/04/10 01:53:55;;;;;;;0.60;0.60;;;;;;;10.41;43.01;96467.53;29990;224;6000;-55
2021/04/10 01:54:27;;;;;;;0.60;0.60;;;;;;;10.38;43.16;96473.59;29990;204;6008;-54
2021/04/10 01:55:00;;;;;;;0.60;0.60;;;;;;;10.33;43.32;96473.69;29990;230;6009;-54
2021/04/10 01:55:31;;;;;;;0.60;0.60;;;;;;;10.28;43.43;96471.06;29990;229;6004;-54
2021/04/10 01:56:04;;;;;;;0.60;0.60;;;;;;;10.26;43.43;96473.28;29990;204;6000;-54
2021/04/10 01:56:37;;;;;;;0.60;0.60;;;;;;;10.24;43.75;96472.75;29990;207;6004;-54
2021/04/10 01:57:08;;;;;;;0.60;0.60;;;;;;;10.36;43.38;96468.47;29990;209;6000;-55
2021/04/10 01:57:39;;;;;;;0.60;0.60;;;;;;;10.38;43.42;96470.88;29990;241;6004;-55
2021/04/10 01:58:10;;;;;;;0.60;0.60;;;;;;;10.43;43.27;96469.94;29989;197;6000;-55
2021/04/10 01:58:42;;;;;;;0.60;0.60;;;;;;;10.43;43.10;96465.31;29991;203;6005;-54
2021/04/10 01:59:17;;;;;;;0.60;0.60;;;;;;;10.40;43.09;96468.62;29990;197;6009;-54
2021/04/10 01:59:49;;;;;;;7.18;6.85;;;;;;;10.36;43.41;96467.66;29990;205;6005;-55
2021/04/10 02:00:23;;;;;;;0.60;0.60;;;;;;;10.32;43.63;96472.87;29990;203;6000;-55
2021/04/10 02:00:54;;;;;;;0.60;0.60;;;;;;;10.29;44.01;96468.06;29991;295;6004;-55
2021/04/10 02:01:26;;;;;;;0.60;0.60;;;;;;;10.25;44.11;96466.25;29990;240;6000;-55
2021/04/10 02:01:59;;;;;;;0.60;0.60;;;;;;;10.21;43.89;96459.81;29990;197;6004;-53
2021/04/10 02:02:30;;;;;;;0.50;0.50;;;;;;;10.25;44.12;96460.81;29990;204;6000;-55
2021/04/10 02:03:02;;;;;;;0.60;0.60;;;;;;;10.34;43.76;96464.44;29990;223;6004;-55
2021/04/10 02:03:34;;;;;;;0.60;0.60;;;;;;;10.35;43.58;96474.19;29990;214;6000;-55
2021/04/10 02:04:06;;;;;;;0.60;0.60;;;;;;;10.31;43.84;96471.25;29991;199;6004;-55
2021/04/10 02:04:41;;;;;;;0.60;0.60;;;;;;;10.27;43.98;96464.03;29991;244;6000;-56
2021/04/10 02:05:15;;;;;;;1.05;1.00;;;;;;;10.27;44.14;96469.44;29990;212;6004;-55
2021/04/10 02:05:48;;;;;;;0.60;0.60;;;;;;;10.30;43.81;96468.84;29991;207;6000;-54
2021/04/10 02:06:20;;;;;;;0.50;0.50;;;;;;;10.27;44.47;96469.44;29990;197;6017;-55
2021/04/10 02:06:52;;;;;;;0.60;0.60;;;;;;;10.23;43.98;96473.88;29991;225;6000;-54
2021/04/10 02:07:25;;;;;;;0.60;0.60;;;;;;;10.20;43.99;96466.34;29991;202;6000;-55
2021/04/10 02:07:57;;;;;;;0.60;0.60;;;;;;;10.16;44.71;96465.28;29990;224;6000;-55
2021/04/10 02:08:29;;;;;;;0.60;0.60;;;;;;;10.13;44.18;96463.97;29991;222;6004;-54
2021/04/10 02:09:01;;;;;;;0.50;0.50;;;;;;;10.16;44.50;96468.00;29990;208;6000;-54
2021/04/10 02:09:33;;;;;;;0.70;0.70;;;;;;;10.20;44.29;96469.03;29991;226;6004;-55
2021/04/10 02:10:06;;;;;;;0.60;0.60;;;;;;;10.19;43.78;96465.53;29990;205;6000;-55
2021/04/10 02:10:38;;;;;;;0.60;0.60;;;;;;;10.27;44.10;96469.44;29990;206;6004;-54
2021/04/10 02:11:10;;;;;;;0.60;0.60;;;;;;;10.24;44.17;96461.91;29990;223;6000;-54
2021/04/10 02:11:48;;;;;;;0.60;0.60;;;;;;;10.31;43.82;96471.25;29991;225;6004;-58
2021/04/10 02:12:24;;;;;;;0.60;0.60;;;;;;;10.36;44.17;96459.53;29990;208;6000;-55
2021/04/10 02:12:55;;;;;;;0.50;0.50;;;;;;;10.27;45.01;96472.16;29990;256;6005;-55
2021/04/10 02:13:29;;;;;;;0.50;0.50;;;;;;;10.32;43.95;96459.31;29991;259;6000;-55
2021/04/10 02:14:02;;;;;;;0.55;0.55;;;;;;;10.37;44.28;96471.97;29990;203;6005;-55
2021/04/10 02:14:34;;;;;;;0.60;0.60;;;;;;;10.32;44.49;96466.66;29990;209;6000;-55
2021/04/10 02:15:07;;;;;;;0.60;0.60;;;;;;;10.27;44.36;96459.41;29990;236;6016;-54
2021/04/10 02:15:38;;;;;;;0.60;0.60;;;;;;;10.31;44.14;96476.69;29990;203;6000;-54
2021/04/10 02:16:09;;;;;;;0.60;0.60;;;;;;;10.32;43.98;96458.50;29990;234;6004;-54
2021/04/10 02:16:40;;;;;;;0.55;0.55;;;;;;;10.37;43.75;96466.56;29990;222;6000;-55
2021/04/10 02:17:15;;;;;;;0.60;0.60;;;;;;;10.33;44.10;96457.41;29990;282;6004;-55
2021/04/10 02:17:46;;;;;;;0.60;0.60;;;;;;;10.29;43.92;96464.53;29991;302;6000;-55
2021/04/10 02:18:19;;;;;;;0.60;0.60;;;;;;;10.21;44.20;96466.03;29990;218;6004;-55
2021/04/10 02:18:53;;;;;;;0.60;0.60;;;;;;;10.18;44.14;96469.31;29991;208;6000;-54
2021/04/10 02:19:24;;;;;;;0.60;0.60;;;;;;;10.27;44.09;96466.75;29991;236;6004;-56
2021/04/10 02:19:56;;;;;;;0.60;0.60;;;;;;;10.30;44.14;96464.22;29990;211;6000;-56
2021/04/10 02:20:27;;;;;;;0.60;0.60;;;;;;;10.27;44.22;96464.84;29991;249;6004;-55
2021/04/10 02:21:00;;;;;;;0.60;0.60;;;;;;;10.27;44.34;96464.84;29990;210;6000;-55
2021/04/10 02:21:33;;;;;;;0.60;0.60;;;;;;;10.22;44.27;96459.50;29990;200;6005;-55
2021/04/10 02:22:04;;;;;;;0.60;0.60;;;;;;;10.18;44.43;96465.78;29991;228;6000;-55
2021/04/10 02:22:35;;;;;;;0.60;0.60;;;;;;;10.21;44.30;96466.03;29990;254;6005;-54
2021/04/10 02:23:07;;;;;;;0.60;0.60;;;;;;;10.20;44.23;96475.28;29990;246;6000;-55
2021/04/10 02:23:40;;;;;;;0.60;0.60;;;;;;;10.21;44.44;96466.03;29990;249;6004;-55
2021/04/10 02:24:13;;;;;;;0.60;0.60;;;;;;;10.24;43.94;96470.84;29991;230;6000;-55
2021/04/10 02:24:44;;;;;;;0.50;0.50;;;;;;;10.20;44.11;96456.28;29991;307;6004;-55
2021/04/10 02:25:17;;;;;;;0.70;0.70;;;;;;;10.28;44.49;96468.34;29991;222;6000;-55
2021/04/10 02:25:47;;;;;;;0.60;0.60;;;;;;;10.25;44.25;96472.47;29990;202;6004;-55
2021/04/10 02:26:18;;;;;;;0.60;0.60;;;;;;;10.23;44.17;96468.44;29990;209;6007;-55
2021/04/10 02:26:48;;;;;;;0.60;0.60;;;;;;;10.22;44.37;96472.25;29991;248;6004;-55
2021/04/10 02:27:19;;;;;;;0.60;0.60;;;;;;;10.18;44.54;96471.22;29990;305;6000;-55
2021/04/10 02:27:49;;;;;;;0.50;0.50;;;;;;;10.14;44.45;96465.59;29991;210;6004;-55
2021/04/10 02:28:20;;;;;;;0.60;0.60;;;;;;;10.12;44.66;96477.84;29990;230;6000;-55
2021/04/10 02:28:51;;;;;;;0.50;0.50;;;;;;;10.18;44.51;96466.59;29991;216;6005;-55
2021/04/10 02:29:22;;;;;;;0.77;0.77;;;;;;;10.26;44.60;96467.84;29991;258;6000;-54
2021/04/10 02:29:54;;;;;;;0.60;0.60;;;;;;;10.28;44.24;96476.47;29990;211;6005;-55
2021/04/10 02:30:24;;;;;;;0.60;0.60;;;;;;;10.25;44.21;96466.25;29990;228;6000;-55
2021/04/10 02:30:57;;;;;;;0.60;0.60;;;;;;;10.19;44.39;96468.25;29991;282;6004;-54
2021/04/10 02:31:54;;;;;;;0.60;0.60;;;;;;;10.19;44.66;96476.38;29990;202;6000;-54
2021/04/10 02:32:35;;;;;;;0.60;0.60;;;;;;;10.13;44.78;96469.41;29991;236;6004;-56
2021/04/10 02:33:19;;;;;;;0.60;0.60;;;;;;;10.08;45.13;96473.00;29991;233;6009;-55
2021/04/10 02:33:52;;;;;;;0.60;0.60;;;;;;;10.05;45.42;96470.09;29990;208;6004;-55
2021/04/10 02:34:26;;;;;;;0.60;0.60;;;;;;;10.05;45.43;96473.59;29990;202;6000;-55
2021/04/10 02:35:12;;;;;;;0.60;0.60;;;;;;;10.06;45.24;96469.78;29990;224;6012;-55
2021/04/10 02:35:46;;;;;;;0.60;0.60;;;;;;;10.04;45.10;96480.16;29990;218;6000;-55
2021/04/10 02:36:22;;;;;;;0.60;0.60;;;;;;;10.02;45.03;96474.22;29990;222;6005;-54
2021/04/10 02:36:55;;;;;;;0.60;0.60;;;;;;;10.02;45.39;96479.66;29991;248;6000;-55
2021/04/10 02:37:26;;;;;;;0.60;0.60;;;;;;;9.99;45.31;96477.53;29991;222;6005;-55
2021/04/10 02:37:58;;;;;;;0.60;0.60;;;;;;;10.00;45.02;96473.72;29990;197;6000;-54
2021/04/10 02:38:32;;;;;;;0.60;0.60;;;;;;;10.00;45.17;96484.56;29991;263;6004;-54
2021/04/10 02:39:06;;;;;;;0.55;0.55;;;;;;;10.05;45.34;96479.03;29990;198;6000;-54
2021/04/10 02:39:39;;;;;;;0.60;0.60;;;;;;;10.12;45.13;96478.63;29991;239;6004;-55
2021/04/10 02:40:12;;;;;;;0.60;0.60;;;;;;;10.09;45.34;96469.19;29990;215;6000;-55
2021/04/10 02:40:48;;;;;;;0.50;0.50;;;;;;;10.04;45.50;96472.03;29990;197;6009;-54
2021/04/10 02:41:24;;;;;;;0.60;0.60;;;;;;;10.00;45.44;96476.44;29990;220;6000;-55
2021/04/10 02:42:01;;;;;;;0.60;0.60;;;;;;;9.99;45.67;96480.25;29990;199;6006;-55
2021/04/10 02:42:34;;;;;;;0.50;0.50;;;;;;;9.95;45.89;96473.81;29989;230;6000;-55
2021/04/10 02:43:10;;;;;;;0.60;0.60;;;;;;;9.92;45.77;96471.69;29990;205;6004;-55
2021/04/10 02:43:48;;;;;;;0.60;0.60;;;;;;;9.92;45.74;96470.88;29990;213;6000;-54
2021/04/10 02:44:28;;;;;;;0.60;0.60;;;;;;;9.97;45.98;96477.03;29991;216;6005;-54
2021/04/10 02:45:03;;;;;;;0.60;0.60;;;;;;;9.99;45.79;96468.59;29990;202;6000;-55
2021/04/10 02:45:36;;;;;;;0.55;0.55;;;;;;;9.98;45.93;96472.41;29991;230;6005;-55
2021/04/10 02:46:09;;;;;;;0.50;0.50;;;;;;;9.94;45.81;96469.50;29991;218;6000;-55